Time;durP1;ratioP1;P1;durP2;ratioP2;P2;SDS_P1;SDS_P2;PMS_P1;PMS_P2;Temp;Humidity;BMP_temperature;BMP_pressure;BME280_temperature;BME280_humidity;BME280_pressure;Samples;Min_cycle;Max_cycle;Signal;HPM_P1;HPM_P2
2023/01/07 00:01:15;;;;;;;26.17;23.38;;;9.90;99.90;;;;;;6244668;23;20008;-83
2023/01/07 00:03:41;;;;;;;30.10;24.08;;;10.20;99.90;;;;;;6217312;23;20023;-84
2023/01/07 00:06:09;;;;;;;28.92;24.52;;;10.00;99.90;;;;;;6244007;23;20027;-84
2023/01/07 00:08:38;;;;;;;26.73;23.65;;;10.00;99.90;;;;;;6244611;23;20023;-83
2023/01/07 00:11:06;;;;;;;30.48;24.40;;;10.10;99.90;;;;;;6193636;23;20020;-83
2023/01/07 00:13:35;;;;;;;28.92;24.15;;;10.10;99.90;;;;;;6219380;23;20468;-83
2023/01/07 00:16:06;;;;;;;31.35;24.80;;;10.60;99.90;;;;;;6217046;23;20051;-83
2023/01/07 00:18:33;;;;;;;32.65;24.65;;;10.10;99.90;;;;;;6245590;23;20085;-86
2023/01/07 00:21:01;;;;;;;29.02;23.48;;;11.00;99.90;;;;;;6193649;23;20341;-83
2023/01/07 00:23:28;;;;;;;24.17;21.30;;;10.20;99.90;;;;;;6218407;23;20507;-83
2023/01/07 00:26:08;;;;;;;30.15;24.65;;;10.30;99.90;;;;;;6245253;23;20016;-83
2023/01/07 00:28:36;;;;;;;29.17;24.05;;;10.70;99.90;;;;;;6219114;23;20086;-83
2023/01/07 00:31:09;;;;;;;26.85;22.75;;;11.20;99.90;;;;;;6245044;23;20058;-83
2023/01/07 00:33:36;;;;;;;25.88;22.92;;;10.30;99.90;;;;;;6218711;23;20016;-85
2023/01/07 00:36:07;;;;;;;29.92;24.15;;;10.60;99.90;;;;;;6245240;23;20019;-83
2023/01/07 00:38:33;;;;;;;28.48;23.73;;;10.20;99.90;;;;;;6218625;23;20507;-83
2023/01/07 00:41:02;;;;;;;28.02;23.30;;;10.30;99.90;;;;;;6218251;23;20043;-84
2023/01/07 00:43:28;;;;;;;24.90;22.30;;;10.00;99.90;;;;;;6193818;23;20016;-83
2023/01/07 00:45:53;;;;;;;26.58;23.75;;;11.00;99.90;;;;;;6191852;23;20027;-84
2023/01/07 00:48:20;;;;;;;25.23;22.00;;;11.00;99.90;;;;;;6218283;23;20453;-83
2023/01/07 00:50:47;;;;;;;26.77;23.90;;;10.30;99.90;;;;;;6218551;23;20134;-84
2023/01/07 00:53:13;;;;;;;27.67;23.65;;;10.40;99.90;;;;;;6245686;23;20012;-83
2023/01/07 00:55:39;;;;;;;30.38;25.13;;;10.40;99.90;;;;;;6245149;23;20066;-84
2023/01/07 00:58:06;;;;;;;26.90;23.75;;;10.80;99.90;;;;;;6218463;23;20019;-85
2023/01/07 01:00:31;;;;;;;32.38;25.48;;;10.40;99.90;;;;;;6217314;23;20601;-84
2023/01/07 01:02:58;;;;;;;29.20;24.35;;;10.40;99.90;;;;;;6244542;23;20083;-84
2023/01/07 01:05:24;;;;;;;31.23;25.60;;;10.60;99.90;;;;;;6244962;23;20479;-83
2023/01/07 01:07:50;;;;;;;27.65;24.08;;;10.40;99.90;;;;;;6244450;23;20047;-85
2023/01/07 01:10:28;;;;;;;25.67;22.95;;;10.50;99.90;;;;;;6217898;23;20051;-83
2023/01/07 01:12:53;;;;;;;28.08;23.90;;;11.20;99.90;;;;;;6245387;23;20012;-83
2023/01/07 01:15:19;;;;;;;27.48;24.50;;;10.50;99.90;;;;;;6217634;23;20019;-83
2023/01/07 01:17:45;;;;;;;28.35;23.30;;;10.50;99.90;;;;;;6244745;23;20022;-83
2023/01/07 01:20:13;;;;;;;30.73;24.27;;;10.50;99.90;;;;;;6218326;23;20460;-83
2023/01/07 01:22:39;;;;;;;28.17;25.13;;;10.60;99.90;;;;;;6193110;23;20345;-84
2023/01/07 01:25:05;;;;;;;27.35;24.45;;;10.50;99.90;;;;;;6244468;23;20012;-86
2023/01/07 01:27:31;;;;;;;27.02;24.08;;;10.60;99.90;;;;;;6244849;23;20091;-84
2023/01/07 01:29:57;;;;;;;28.52;25.48;;;10.60;99.90;;;;;;6217244;23;20052;-83
2023/01/07 01:32:24;;;;;;;27.92;23.98;;;10.60;99.90;;;;;;6244840;23;20012;-84
2023/01/07 01:34:49;;;;;;;29.33;25.17;;;10.50;99.90;;;;;;6193416;23;20008;-86
2023/01/07 01:37:15;;;;;;;28.10;24.08;;;10.60;99.90;;;;;;6217999;23;20038;-85
2023/01/07 01:39:41;;;;;;;24.80;22.30;;;10.60;99.90;;;;;;6192951;23;20511;-83
2023/01/07 01:42:12;;;;;;;28.83;25.15;;;10.80;99.90;;;;;;6218555;23;20015;-83
2023/01/07 01:44:40;;;;;;;27.35;24.50;;;10.60;99.90;;;;;;6192657;23;20412;-85
2023/01/07 01:47:19;;;;;;;26.23;23.42;;;10.60;99.90;;;;;;6244867;23;20027;-84
2023/01/07 01:50:01;;;;;;;26.17;22.90;;;10.70;99.90;;;;;;6193847;23;20019;-83
2023/01/07 01:52:55;;;;;;;23.50;21.30;;;10.90;99.90;;;;;;6193360;23;20043;-83
2023/01/07 01:55:28;;;;;;;23.38;21.05;;;10.70;99.90;;;;;;6245316;23;20016;-83
2023/01/07 01:57:59;;;;;;;24.35;21.88;;;10.80;99.90;;;;;;6244939;23;20009;-83
2023/01/07 02:00:24;;;;;;;24.98;22.40;;;11.10;99.90;;;;;;6244021;23;20047;-83
2023/01/07 02:02:56;;;;;;;24.15;21.95;;;10.50;99.90;;;;;;6217560;23;20012;-84
2023/01/07 02:05:34;;;;;;;24.48;21.98;;;10.70;99.90;;;;;;6192694;23;20094;-83
2023/01/07 02:07:59;;;;;;;25.02;22.67;;;10.70;99.90;;;;;;6243774;23;20008;-83
2023/01/07 02:10:25;;;;;;;23.17;21.08;;;11.00;99.90;;;;;;6218175;23;20012;-84
2023/01/07 02:12:54;;;;;;;23.88;21.75;;;11.20;99.90;;;;;;6218563;23;20019;-83
2023/01/07 02:15:32;;;;;;;24.20;22.05;;;10.70;99.90;;;;;;6245146;23;20062;-84
2023/01/07 02:18:30;;;;;;;21.48;19.67;;;10.80;99.90;;;;;;6217600;23;20087;-84
2023/01/07 02:21:05;;;;;;;23.33;21.15;;;10.80;99.90;;;;;;6137337;23;20016;-84
2023/01/07 02:23:54;;;;;;;21.88;20.00;;;10.70;99.90;;;;;;6218704;23;20019;-84
2023/01/07 02:26:26;;;;;;;22.50;20.40;;;10.80;99.90;;;;;;6244849;23;20027;-84
2023/01/07 02:29:14;;;;;;;22.80;20.67;;;10.70;99.90;;;;;;6244860;23;20091;-84
2023/01/07 02:32:13;;;;;;;22.95;20.85;;;10.80;99.90;;;;;;6245426;23;20008;-83
2023/01/07 02:34:57;;;;;;;22.45;20.35;;;10.80;99.90;;;;;;6245844;23;20012;-84
2023/01/07 02:37:41;;;;;;;21.92;19.92;;;10.70;99.90;;;;;;6194690;23;20015;-84
2023/01/07 02:40:20;;;;;;;21.70;19.80;;;10.70;99.90;;;;;;6219892;23;20016;-83
2023/01/07 02:42:56;;;;;;;20.80;18.92;;;10.70;99.90;;;;;;6247490;23;20023;-83
2023/01/07 02:45:34;;;;;;;19.95;18.25;;;11.30;99.90;;;;;;6246533;23;20082;-83
2023/01/07 02:48:04;;;;;;;20.60;18.88;;;10.70;99.90;;;;;;6219069;23;20091;-83
2023/01/07 02:50:30;;;;;;;21.90;19.83;;;11.40;99.90;;;;;;6246170;23;20027;-84
2023/01/07 02:52:55;;;;;;;22.10;19.77;;;10.70;99.90;;;;;;6219718;23;20077;-83
2023/01/07 02:55:40;;;;;;;19.30;17.70;;;11.60;99.90;;;;;;6245923;23;20081;-84
2023/01/07 02:58:13;;;;;;;19.55;17.90;;;10.70;99.90;;;;;;6245586;23;20019;-87
2023/01/07 03:00:48;;;;;;;20.73;18.95;;;10.90;99.90;;;;;;6192457;23;20091;-83
2023/01/07 03:03:41;;;;;;;20.42;18.58;;;11.30;99.90;;;;;;6219251;23;20016;-83
2023/01/07 03:06:39;;;;;;;20.45;18.05;;;10.30;99.90;;;;;;6193978;23;20011;-84
2023/01/07 03:09:24;;;;;;;19.85;18.05;;;10.70;99.90;;;;;;6219468;23;20228;-84
2023/01/07 03:11:58;;;;;;;20.65;18.85;;;10.70;99.90;;;;;;6219303;23;20027;-83
2023/01/07 03:14:36;;;;;;;20.08;18.27;;;10.60;99.90;;;;;;6245895;23;20019;-83
2023/01/07 03:17:04;;;;;;;19.83;18.13;;;10.70;99.90;;;;;;6219252;23;20091;-83
2023/01/07 03:19:37;;;;;;;19.25;17.35;;;10.60;99.90;;;;;;6218703;23;20023;-85
2023/01/07 03:22:06;;;;;;;19.60;17.67;;;10.60;99.90;;;;;;6194203;23;20008;-84
2023/01/07 03:24:34;;;;;;;19.02;17.23;;;10.60;99.90;;;;;;6220039;23;20016;-84
2023/01/07 03:27:03;;;;;;;18.20;16.50;;;10.60;99.90;;;;;;6194293;23;20015;-83
2023/01/07 03:29:31;;;;;;;19.48;17.67;;;10.60;99.90;;;;;;6245316;23;20035;-84
2023/01/07 03:32:21;;;;;;;18.25;16.60;;;10.60;99.90;;;;;;6245748;23;20012;-83
2023/01/07 03:34:46;;;;;;;19.02;17.15;;;10.70;99.90;;;;;;6194711;23;20094;-84
2023/01/07 03:37:15;;;;;;;18.02;16.30;;;10.60;99.90;;;;;;6245429;23;20020;-84
2023/01/07 03:39:43;;;;;;;19.60;17.60;;;10.60;99.90;;;;;;6218260;23;20012;-84
2023/01/07 03:44:57;;;;;;;17.90;16.30;;;10.60;99.90;;;;;;6217905;23;20027;-83
2023/01/07 03:47:24;;;;;;;17.50;15.70;;;10.60;99.90;;;;;;6245148;23;20042;-83
2023/01/07 03:49:50;;;;;;;16.77;15.27;;;10.60;99.90;;;;;;6193870;23;20040;-83
2023/01/07 03:52:15;;;;;;;17.83;15.98;;;10.50;99.90;;;;;;6218324;23;20034;-84
2023/01/07 03:54:41;;;;;;;16.55;15.15;;;10.50;99.90;;;;;;6193334;23;20600;-84
2023/01/07 03:57:07;;;;;;;17.67;15.85;;;10.50;99.90;;;;;;6218872;23;20016;-84
2023/01/07 03:59:32;;;;;;;18.95;16.20;;;10.50;99.90;;;;;;6219229;23;20016;-84
2023/01/07 04:01:58;;;;;;;20.85;17.35;;;10.50;99.90;;;;;;6193728;23;20016;-85
2023/01/07 04:04:26;;;;;;;17.40;15.43;;;10.50;99.90;;;;;;6245155;23;20487;-84
2023/01/07 04:06:52;;;;;;;17.30;15.57;;;10.40;99.90;;;;;;6217230;23;20447;-83
2023/01/07 04:09:17;;;;;;;15.80;14.30;;;11.00;99.90;;;;;;6217892;23;20027;-84
2023/01/07 04:11:44;;;;;;;16.27;14.77;;;10.40;99.90;;;;;;6219483;23;20016;-84
2023/01/07 04:14:09;;;;;;;16.58;14.80;;;10.40;99.90;;;;;;6219608;23;20020;-83
2023/01/07 04:16:35;;;;;;;15.63;14.13;;;10.70;99.90;;;;;;6218455;23;20448;-84
2023/01/07 04:19:03;;;;;;;15.57;14.18;;;10.40;99.90;;;;;;6245761;23;20015;-85
2023/01/07 04:21:30;;;;;;;16.67;14.63;;;10.50;99.90;;;;;;6219248;23;20015;-86
2023/01/07 04:23:55;;;;;;;14.45;13.10;;;11.40;99.90;;;;;;6193793;23;20012;-83
2023/01/07 04:26:21;;;;;;;16.00;13.23;;;11.10;99.90;;;;;;6245723;23;20145;-84
2023/01/07 04:28:47;;;;;;;15.25;13.75;;;10.80;99.90;;;;;;6218321;23;20023;-83
2023/01/07 04:31:12;;;;;;;14.93;13.18;;;10.40;99.90;;;;;;6245127;23;20051;-84
2023/01/07 04:33:43;;;;;;;13.60;12.30;;;10.50;99.90;;;;;;6245742;23;20052;-83
2023/01/07 04:36:09;;;;;;;15.73;12.77;;;11.00;99.90;;;;;;6245131;23;20016;-85
2023/01/07 04:38:34;;;;;;;14.10;12.52;;;10.60;99.90;;;;;;6217991;23;20019;-83
2023/01/07 04:41:00;;;;;;;14.95;13.45;;;10.40;99.90;;;;;;6218575;23;20023;-83
2023/01/07 04:43:25;;;;;;;14.60;12.88;;;10.40;99.90;;;;;;6218886;23;20023;-83
2023/01/07 04:45:51;;;;;;;13.07;11.75;;;10.40;99.90;;;;;;6193408;23;20022;-83
2023/01/07 04:48:16;;;;;;;14.52;12.13;;;10.40;99.90;;;;;;6193313;23;20522;-84
2023/01/07 04:50:42;;;;;;;13.07;11.55;;;10.40;99.90;;;;;;6219555;23;20052;-84
2023/01/07 04:53:08;;;;;;;13.10;11.68;;;10.60;99.90;;;;;;6193354;23;20019;-84
2023/01/07 04:55:33;;;;;;;15.68;11.50;;;10.50;99.90;;;;;;6218383;23;20090;-84
2023/01/07 04:57:59;;;;;;;13.10;11.57;;;10.30;99.90;;;;;;6193406;23;20008;-83
2023/01/07 05:00:24;;;;;;;11.88;10.77;;;10.40;99.90;;;;;;6244879;23;20060;-83
2023/01/07 05:02:50;;;;;;;12.35;11.15;;;11.60;99.90;;;;;;6218601;23;20083;-83
2023/01/07 05:05:15;;;;;;;12.93;11.10;;;10.80;99.90;;;;;;6219066;23;20291;-83
2023/01/07 05:07:41;;;;;;;12.02;10.48;;;10.80;99.90;;;;;;6245540;23;20071;-83
2023/01/07 05:10:07;;;;;;;12.10;10.85;;;10.40;99.90;;;;;;6218313;23;20016;-84
2023/01/07 05:12:34;;;;;;;15.32;11.13;;;10.40;99.90;;;;;;6218869;23;20016;-83
2023/01/07 05:15:01;;;;;;;11.20;10.07;;;10.40;99.90;;;;;;6245318;23;20040;-83
2023/01/07 05:17:26;;;;;;;15.25;11.15;;;10.40;99.90;;;;;;6216006;23;20087;-82
2023/01/07 05:19:52;;;;;;;12.32;10.07;;;10.40;99.90;;;;;;6192626;23;20069;-82
2023/01/07 05:22:20;;;;;;;12.23;10.35;;;10.50;99.90;;;;;;6244864;23;20074;-83
2023/01/07 05:24:45;;;;;;;10.77;9.57;;;10.60;99.90;;;;;;6218531;23;20396;-83
2023/01/07 05:27:11;;;;;;;10.18;9.23;;;11.00;99.90;;;;;;6243425;23;20087;-84
2023/01/07 05:29:37;;;;;;;11.32;9.10;;;10.40;99.90;;;;;;6244714;23;20086;-83
2023/01/07 05:32:03;;;;;;;12.90;9.20;;;10.60;99.90;;;;;;6245347;23;20012;-82
2023/01/07 05:34:28;;;;;;;10.05;8.27;;;10.40;99.90;;;;;;6245469;23;20008;-82
2023/01/07 05:36:54;;;;;;;13.20;9.25;;;10.40;99.90;;;;;;6216637;23;20095;-83
2023/01/07 05:39:24;;;;;;;13.10;9.35;;;10.40;99.90;;;;;;6193645;23;20421;-82
2023/01/07 05:41:50;;;;;;;11.38;8.35;;;11.30;99.90;;;;;;6217150;23;20123;-84
2023/01/07 05:44:16;;;;;;;9.82;8.10;;;10.40;99.90;;;;;;6217949;23;20047;-83
2023/01/07 05:46:41;;;;;;;12.00;9.40;;;11.10;99.90;;;;;;6243716;23;20020;-84
2023/01/07 05:49:07;;;;;;;8.55;7.75;;;10.40;99.90;;;;;;6217466;23;20012;-83
2023/01/07 05:51:32;;;;;;;12.15;8.20;;;10.40;99.90;;;;;;6192179;23;20348;-83
2023/01/07 05:54:01;;;;;;;8.80;7.90;;;10.40;99.90;;;;;;6193617;23;20020;-83
2023/01/07 05:56:26;;;;;;;10.57;7.45;;;10.40;99.90;;;;;;6191904;23;20017;-82
2023/01/07 05:58:52;;;;;;;9.45;7.18;;;10.40;99.90;;;;;;6243743;23;20008;-84
2023/01/07 06:01:17;;;;;;;9.10;7.38;;;10.30;99.90;;;;;;6244051;23;20070;-83
2023/01/07 06:03:43;;;;;;;9.45;7.68;;;10.40;99.90;;;;;;6217468;23;20031;-83
2023/01/07 06:06:09;;;;;;;9.32;8.35;;;10.30;99.90;;;;;;6215473;23;20028;-83
2023/01/07 06:08:37;;;;;;;9.05;8.15;;;10.40;99.90;;;;;;6217695;23;20016;-82
2023/01/07 06:11:04;;;;;;;9.52;7.78;;;10.40;99.90;;;;;;6244872;23;20093;-83
2023/01/07 06:13:30;;;;;;;8.65;7.30;;;10.40;99.90;;;;;;6219227;23;20067;-84
2023/01/07 06:16:00;;;;;;;8.43;7.13;;;10.40;99.90;;;;;;6186741;23;20016;-85
2023/01/07 06:18:26;;;;;;;10.05;7.63;;;10.70;99.90;;;;;;6183979;23;20133;-84
2023/01/07 06:20:53;;;;;;;7.38;6.50;;;10.30;99.90;;;;;;6214674;23;20329;-85
2023/01/07 06:23:24;;;;;;;8.43;7.47;;;10.40;99.90;;;;;;6190779;23;20019;-83
2023/01/07 06:25:50;;;;;;;9.65;7.70;;;10.60;99.90;;;;;;6215292;23;20193;-83
2023/01/07 06:28:18;;;;;;;9.55;7.15;;;10.40;99.90;;;;;;6214427;23;20028;-83
2023/01/07 06:30:45;;;;;;;8.20;7.15;;;11.00;99.90;;;;;;6242594;23;20078;-84
2023/01/07 06:33:22;;;;;;;9.98;6.95;;;10.30;99.90;;;;;;6214875;23;20023;-83
2023/01/07 06:35:48;;;;;;;8.57;7.10;;;10.80;99.90;;;;;;6242385;23;20012;-83
2023/01/07 06:38:13;;;;;;;7.43;6.75;;;10.40;99.90;;;;;;6216368;23;20012;-83
2023/01/07 06:40:39;;;;;;;8.95;7.40;;;10.60;99.90;;;;;;6191887;23;20012;-84
2023/01/07 06:43:04;;;;;;;8.13;6.43;;;10.40;99.90;;;;;;6212988;23;20476;-84
2023/01/07 06:45:52;;;;;;;7.78;6.55;;;10.40;99.90;;;;;;6191569;23;20048;-83
2023/01/07 06:48:17;;;;;;;7.63;6.38;;;10.40;99.90;;;;;;6191150;23;20099;-83
2023/01/07 06:50:44;;;;;;;10.38;6.28;;;10.30;99.90;;;;;;6190607;23;20051;-86
2023/01/07 06:53:56;;;;;;;6.78;6.13;;;10.30;99.90;;;;;;6191037;23;20023;-83
2023/01/07 06:56:30;;;;;;;6.88;5.35;;;10.40;99.90;;;;;;6193182;23;20031;-83
2023/01/07 06:58:56;;;;;;;7.43;5.97;;;10.40;99.90;;;;;;6188439;23;20007;-83
2023/01/07 07:01:22;;;;;;;8.88;5.05;;;10.30;99.90;;;;;;6191354;23;20078;-84
2023/01/07 07:04:06;;;;;;;8.10;4.72;;;10.40;99.90;;;;;;6220992;23;20073;-83
2023/01/07 07:06:34;;;;;;;7.63;5.80;;;11.00;99.90;;;;;;6190999;23;20016;-83
2023/01/07 07:09:12;;;;;;;9.40;5.38;;;10.40;99.90;;;;;;6191755;23;20725;-83
2023/01/07 07:11:40;;;;;;;6.40;5.25;;;10.30;99.90;;;;;;6192877;23;20023;-83
2023/01/07 07:14:05;;;;;;;9.23;5.43;;;10.30;99.90;;;;;;6192297;23;20038;-83
2023/01/07 07:16:37;;;;;;;7.20;4.90;;;10.40;99.90;;;;;;6194169;23;20028;-84
2023/01/07 07:19:23;;;;;;;6.10;5.03;;;10.40;99.90;;;;;;6244328;23;20018;-87
2023/01/07 07:22:13;;;;;;;5.88;5.28;;;10.40;99.90;;;;;;6194499;23;20399;-83
2023/01/07 07:24:46;;;;;;;8.27;5.60;;;10.40;99.90;;;;;;6195394;23;20091;-84
2023/01/07 07:34:13;;;;;;;5.13;4.55;;;10.40;99.90;;;;;;6216159;23;20099;-84
2023/01/07 07:37:56;;;;;;;5.53;4.32;;;10.30;99.90;;;;;;6245544;23;20027;-84
2023/01/07 07:40:53;;;;;;;7.18;5.25;;;10.30;99.90;;;;;;6067257;23;20459;-85
2023/01/07 07:43:19;;;;;;;4.95;4.45;;;10.20;99.90;;;;;;6038713;23;20486;-84
2023/01/07 07:45:48;;;;;;;6.20;4.07;;;10.20;99.90;;;;;;6184983;23;20020;-85
2023/01/07 07:49:05;;;;;;;8.35;4.20;;;10.20;99.90;;;;;;6192409;23;20018;-83
2023/01/07 07:52:16;;;;;;;5.07;3.58;;;10.20;99.90;;;;;;6236981;23;20770;-85
2023/01/07 07:55:02;;;;;;;5.68;4.50;;;10.10;99.90;;;;;;6192548;23;20074;-85
2023/01/07 07:57:31;;;;;;;8.82;4.50;;;10.10;99.90;;;;;;6193422;23;20066;-85
2023/01/07 08:03:44;;;;;;;6.60;3.65;;;10.00;99.90;;;;;;6246355;23;20010;-86
2023/01/07 08:06:11;;;;;;;7.10;4.15;;;10.00;99.90;;;;;;6217246;23;20016;-86
2023/01/07 08:08:36;;;;;;;5.75;3.70;;;10.10;99.90;;;;;;6193069;23;20016;-82
2023/01/07 08:11:02;;;;;;;5.05;3.58;;;10.00;99.90;;;;;;6219646;23;20016;-83
2023/01/07 08:13:38;;;;;;;5.55;3.97;;;9.90;99.90;;;;;;6219939;23;20138;-82
2023/01/07 08:16:08;;;;;;;9.60;3.63;;;10.00;99.90;;;;;;6219834;23;20044;-83
2023/01/07 08:18:34;;;;;;;8.63;4.35;;;10.00;99.90;;;;;;6220153;23;20012;-82
2023/01/07 08:21:00;;;;;;;5.18;4.40;;;10.00;99.90;;;;;;6194571;23;20012;-83
2023/01/07 08:23:36;;;;;;;5.00;3.65;;;10.00;99.90;;;;;;6192825;23;20012;-83
2023/01/07 08:26:02;;;;;;;7.88;4.32;;;10.00;99.90;;;;;;6215030;23;20078;-81
2023/01/07 08:28:29;;;;;;;9.30;3.78;;;10.00;99.90;;;;;;6194638;23;20057;-83
2023/01/07 08:30:55;;;;;;;6.30;3.67;;;10.10;99.90;;;;;;6194599;23;20019;-82
2023/01/07 08:33:21;;;;;;;5.80;3.47;;;10.10;99.90;;;;;;6194798;23;20016;-82
2023/01/07 08:36:12;;;;;;;5.82;3.25;;;10.10;99.90;;;;;;6193307;23;20068;-86
2023/01/07 08:39:02;;;;;;;4.85;3.20;;;10.10;99.90;;;;;;6192108;23;20456;-85
2023/01/07 08:45:30;;;;;;;4.85;3.38;;;10.10;99.90;;;;;;6206867;23;20050;-83
2023/01/07 08:50:53;;;;;;;5.05;3.33;;;10.10;99.90;;;;;;6218534;23;20767;-84
2023/01/07 08:54:19;;;;;;;5.07;3.28;;;10.10;99.90;;;;;;6246703;23;20019;-82
2023/01/07 08:56:44;;;;;;;4.82;2.83;;;10.00;99.90;;;;;;6194882;23;20127;-83
2023/01/07 08:59:15;;;;;;;4.57;2.70;;;10.00;99.90;;;;;;6192856;23;20023;-83
2023/01/07 09:02:28;;;;;;;4.05;3.63;;;10.10;99.90;;;;;;6219169;23;20727;-84
2023/01/07 09:04:56;;;;;;;3.45;3.13;;;10.00;99.90;;;;;;6216210;23;20070;-86
2023/01/07 09:07:44;;;;;;;5.30;2.67;;;10.00;99.90;;;;;;6216982;23;20020;-84
2023/01/07 09:10:13;;;;;;;4.78;3.22;;;10.10;99.90;;;;;;6193055;23;20012;-85
2023/01/07 09:12:54;;;;;;;7.15;3.40;;;10.70;99.90;;;;;;6190415;23;20107;-84
2023/01/07 09:15:20;;;;;;;4.07;2.80;;;10.10;99.90;;;;;;6183560;23;20016;-84
2023/01/07 09:17:46;;;;;;;3.33;2.80;;;10.10;99.90;;;;;;6193965;23;20330;-84
2023/01/07 09:20:12;;;;;;;7.20;3.42;;;10.10;99.90;;;;;;6219228;23;20436;-84
2023/01/07 09:22:51;;;;;;;4.85;2.67;;;10.10;99.90;;;;;;6218732;23;20017;-85
2023/01/07 09:25:20;;;;;;;2.63;2.40;;;10.10;99.90;;;;;;6219428;23;20043;-85
2023/01/07 09:31:16;;;;;;;6.30;2.63;;;10.00;99.90;;;;;;6231897;23;20123;-84
2023/01/07 09:45:14;;;;;;;3.90;1.85;;;10.10;99.90;;;;;;6112897;23;20060;-86
2023/01/07 09:48:20;;;;;;;2.15;1.98;;;10.20;99.90;;;;;;6193349;23;20062;-84
2023/01/07 09:51:44;;;;;;;4.82;2.28;;;10.20;99.90;;;;;;6209787;23;20024;-85
2023/01/07 09:57:35;;;;;;;4.07;2.15;;;10.40;99.90;;;;;;6218385;23;20273;-85
2023/01/07 10:00:04;;;;;;;2.55;1.90;;;11.30;99.90;;;;;;6168360;23;20016;-86
2023/01/07 10:10:39;;;;;;;5.95;2.25;;;10.40;99.90;;;;;;6168023;23;20460;-85
2023/01/07 10:18:08;;;;;;;2.03;1.55;;;10.40;99.90;;;;;;6198740;23;20092;-85
2023/01/07 10:21:12;;;;;;;3.15;2.30;;;10.40;99.90;;;;;;6186815;23;20116;-85
2023/01/07 10:23:50;;;;;;;2.60;1.63;;;9.80;99.90;;;;;;6162769;23;20160;-85
2023/01/07 10:26:43;;;;;;;3.03;1.40;;;10.40;99.90;;;;;;6171174;23;20020;-87
2023/01/07 10:29:21;;;;;;;2.33;1.10;;;10.40;99.90;;;;;;6194207;23;20040;-86
2023/01/07 10:32:25;;;;;;;5.30;1.90;;;10.40;99.90;;;;;;6219148;23;20015;-86
2023/01/07 10:34:55;;;;;;;7.55;2.40;;;10.50;99.90;;;;;;6121516;23;20023;-85
2023/01/07 10:37:34;;;;;;;4.47;1.35;;;10.50;99.90;;;;;;6220501;23;20024;-86
2023/01/07 10:40:57;;;;;;;17.30;1.77;;;10.50;99.90;;;;;;6194377;23;20015;-85
2023/01/07 10:44:18;;;;;;;2.83;1.20;;;10.10;99.90;;;;;;6193422;23;20012;-86
2023/01/07 10:47:36;;;;;;;1.92;1.60;;;10.60;99.90;;;;;;6219704;23;20023;-84
2023/01/07 10:50:25;;;;;;;2.03;0.88;;;10.70;99.90;;;;;;6085016;23;20455;-84
2023/01/07 10:53:21;;;;;;;2.78;1.70;;;10.70;99.90;;;;;;6198430;23;20016;-84
2023/01/07 10:56:03;;;;;;;1.50;0.80;;;10.70;99.90;;;;;;6222907;23;20026;-85
2023/01/07 10:59:06;;;;;;;5.00;0.93;;;10.80;99.90;;;;;;6198437;23;20065;-85
2023/01/07 11:02:04;;;;;;;2.28;0.90;;;10.80;99.90;;;;;;6221027;23;20008;-86
2023/01/07 11:04:30;;;;;;;2.90;0.80;;;10.80;99.90;;;;;;6194642;23;20008;-86
2023/01/07 11:07:46;;;;;;;1.20;1.05;;;10.80;99.90;;;;;;6194147;23;20123;-84
2023/01/07 11:10:59;;;;;;;1.83;0.93;;;10.80;99.90;;;;;;6207065;23;20109;-85
2023/01/07 11:14:20;;;;;;;2.75;0.70;;;10.90;99.90;;;;;;6189120;23;20450;-86
2023/01/07 11:20:54;;;;;;;2.95;1.02;;;10.80;99.90;;;;;;6165062;23;20116;-86
2023/01/07 11:23:48;;;;;;;2.30;0.95;;;10.90;99.90;;;;;;6169010;23;20016;-86
2023/01/07 11:26:34;;;;;;;0.77;0.60;;;10.90;99.90;;;;;;6215452;23;20107;-86
2023/01/07 11:29:25;;;;;;;3.90;0.95;;;10.90;99.90;;;;;;6216423;23;20452;-85
2023/01/07 11:31:56;;;;;;;1.52;1.00;;;11.00;99.90;;;;;;6210587;23;20020;-86
2023/01/07 11:34:26;;;;;;;1.55;0.98;;;11.00;99.90;;;;;;6187649;23;20054;-87
2023/01/07 11:36:53;;;;;;;3.10;0.90;;;11.00;99.90;;;;;;6213765;23;20088;-87
2023/01/07 11:39:25;;;;;;;1.70;0.90;;;11.10;99.90;;;;;;6212550;23;20016;-86
2023/01/07 11:45:15;;;;;;;2.25;1.45;;;11.00;99.90;;;;;;6212286;23;20023;-87
2023/01/07 11:48:05;;;;;;;2.13;1.00;;;11.00;99.90;;;;;;6187816;23;20027;-86
2023/01/07 11:50:38;;;;;;;1.63;1.08;;;11.00;99.90;;;;;;6188679;23;20055;-86
2023/01/07 11:53:30;;;;;;;2.92;1.00;;;10.90;99.90;;;;;;6215778;23;20016;-86
2023/01/07 11:56:01;;;;;;;1.52;0.80;;;11.30;99.90;;;;;;6243113;23;20016;-87
2023/01/07 11:58:33;;;;;;;1.98;0.90;;;11.00;99.90;;;;;;6242548;23;20038;-86
2023/01/07 12:19:21;;;;;;;2.70;0.52;;;11.30;99.90;;;;;;6208765;23;20067;-85
2023/01/07 12:40:36;;;;;;;5.03;0.63;;;11.60;99.90;;;;;;6213398;23;20047;-86
2023/01/07 12:43:11;;;;;;;1.65;0.90;;;11.70;99.90;;;;;;6186679;23;20013;-80
2023/01/07 12:46:06;;;;;;;1.85;0.75;;;11.70;99.90;;;;;;6162749;23;20020;-80
2023/01/07 12:49:03;;;;;;;1.35;0.70;;;11.70;99.90;;;;;;6161774;23;20023;-80
2023/01/07 12:51:41;;;;;;;1.40;0.52;;;11.70;99.90;;;;;;6161730;23;20013;-84
2023/01/07 12:54:56;;;;;;;2.22;0.88;;;11.70;99.90;;;;;;6188639;23;20016;-84
2023/01/07 12:57:35;;;;;;;7.18;0.93;;;11.70;99.90;;;;;;6187191;23;20570;-84
2023/01/07 13:00:14;;;;;;;2.97;0.70;;;11.70;99.90;;;;;;6164330;23;20009;-83
2023/01/07 13:02:53;;;;;;;6.32;1.30;;;11.70;99.90;;;;;;6186468;23;20028;-84
2023/01/07 13:05:41;;;;;;;2.50;0.60;;;11.60;99.90;;;;;;6186366;23;20008;-84
2023/01/07 13:08:34;;;;;;;3.35;0.60;;;11.60;99.90;;;;;;6187397;23;20015;-83
2023/01/07 13:11:11;;;;;;;3.90;0.57;;;11.60;99.90;;;;;;6187716;23;20024;-82
2023/01/07 13:13:50;;;;;;;2.15;0.80;;;11.70;99.90;;;;;;6162619;23;20012;-83
2023/01/07 13:16:15;;;;;;;1.52;0.75;;;11.80;99.90;;;;;;6136866;23;20461;-83
2023/01/07 13:18:41;;;;;;;0.60;0.43;;;11.50;99.90;;;;;;6187435;23;20020;-83
2023/01/07 13:21:07;;;;;;;2.53;0.50;;;11.50;99.90;;;;;;6161990;23;20020;-82
2023/01/07 13:24:23;;;;;;;1.65;0.43;;;11.60;99.90;;;;;;6185816;23;20012;-82
2023/01/07 13:27:08;;;;;;;5.85;0.90;;;11.60;99.90;;;;;;6187673;23;20537;-83
2023/01/07 13:30:18;;;;;;;22.35;1.63;;;11.50;99.90;;;;;;6186982;23;20024;-82
2023/01/07 13:32:44;;;;;;;2.78;0.50;;;11.60;99.90;;;;;;6185563;23;20904;-82
2023/01/07 13:35:19;;;;;;;2.72;0.50;;;11.50;99.90;;;;;;6188751;23;20055;-82
2023/01/07 13:37:58;;;;;;;0.82;0.55;;;11.50;99.90;;;;;;6162546;23;20079;-81
2023/01/07 13:40:49;;;;;;;2.90;0.68;;;11.50;99.90;;;;;;6164175;23;20044;-83
2023/01/07 13:43:36;;;;;;;5.05;0.82;;;11.40;99.90;;;;;;6188371;23;20032;-83
2023/01/07 13:46:08;;;;;;;1.15;0.40;;;11.30;99.90;;;;;;6162995;23;20020;-83
2023/01/07 13:48:37;;;;;;;5.10;0.65;;;11.30;99.90;;;;;;6188539;23;20496;-82
2023/01/07 13:51:53;;;;;;;1.70;0.68;;;11.30;99.90;;;;;;6167924;23;20091;-82
2023/01/07 13:54:46;;;;;;;6.00;1.15;;;11.20;99.90;;;;;;6161152;23;20020;-83
2023/01/07 13:57:38;;;;;;;2.55;0.90;;;11.20;99.90;;;;;;6162192;23;20023;-83
2023/01/07 14:00:34;;;;;;;8.32;1.13;;;11.20;99.90;;;;;;6163766;23;20020;-83
2023/01/07 14:03:04;;;;;;;3.10;0.80;;;11.20;99.90;;;;;;6159685;23;20091;-83
2023/01/07 14:05:29;;;;;;;2.45;0.80;;;11.10;99.90;;;;;;6162643;23;20023;-83
2023/01/07 14:08:10;;;;;;;3.88;1.48;;;11.10;99.90;;;;;;6161718;23;20036;-84
2023/01/07 14:10:36;;;;;;;4.30;0.85;;;11.10;99.90;;;;;;6188309;23;20016;-82
2023/01/07 14:13:26;;;;;;;3.72;1.23;;;11.00;99.90;;;;;;6187777;23;20019;-80
2023/01/07 14:16:00;;;;;;;6.13;1.00;;;11.00;99.90;;;;;;6162427;23;20104;-82
2023/01/07 14:19:12;;;;;;;3.05;1.08;;;11.10;99.90;;;;;;6161776;23;20036;-81
2023/01/07 14:21:46;;;;;;;5.07;1.48;;;11.00;99.90;;;;;;6043797;23;20010;-82
2023/01/07 14:24:35;;;;;;;5.13;1.30;;;11.00;99.90;;;;;;6168439;23;20017;-82
2023/01/07 14:27:25;;;;;;;3.10;0.88;;;11.00;99.90;;;;;;6163333;23;20095;-83
2023/01/07 14:29:58;;;;;;;2.95;1.05;;;11.00;99.90;;;;;;6186188;23;20012;-84
2023/01/07 14:33:09;;;;;;;1.75;0.88;;;10.90;99.90;;;;;;6187735;23;20417;-85
2023/01/07 14:36:19;;;;;;;1.30;0.80;;;10.90;99.90;;;;;;6141666;23;20019;-83
2023/01/07 14:39:03;;;;;;;9.57;1.38;;;10.80;99.90;;;;;;6061926;23;20747;-84
2023/01/07 14:42:18;;;;;;;4.60;0.73;;;10.80;99.90;;;;;;6068932;23;20029;-85
2023/01/07 14:44:45;;;;;;;16.15;1.70;;;10.80;99.90;;;;;;6066943;23;20329;-85
2023/01/07 14:47:11;;;;;;;3.30;0.90;;;10.80;99.90;;;;;;6043396;23;20022;-84
2023/01/07 14:50:07;;;;;;;10.70;1.60;;;10.70;99.90;;;;;;6070626;23;20399;-85
2023/01/07 14:53:25;;;;;;;3.63;0.77;;;10.80;99.90;;;;;;6068355;23;20021;-85
2023/01/07 14:56:16;;;;;;;2.00;0.90;;;10.70;99.90;;;;;;6070353;23;20025;-84
2023/01/07 14:59:40;;;;;;;1.75;1.17;;;10.60;99.90;;;;;;6078631;23;20015;-85